createdAt,value
2022-09-30T00:01:34.102Z,2.60
2022-09-30T00:04:01.297Z,2.58
2022-09-30T00:06:29.632Z,2.38
2022-09-30T00:08:57.974Z,2.95
2022-09-30T00:11:31.064Z,2.63
2022-09-30T00:13:58.711Z,2.38
2022-09-30T00:16:29.518Z,2.42
2022-09-30T00:18:57.762Z,2.05
2022-09-30T00:21:25.157Z,2.13
2022-09-30T00:23:51.921Z,2.67
2022-09-30T00:26:22.521Z,2.90
2022-09-30T00:28:58.601Z,2.83
2022-09-30T00:31:29.671Z,3.00
2022-09-30T00:34:09.012Z,2.80
2022-09-30T00:36:48.493Z,2.92
2022-09-30T00:39:23.372Z,2.40
2022-09-30T00:41:54.167Z,2.58
2022-09-30T00:45:10.932Z,2.33
2022-09-30T00:47:46.173Z,2.47
2022-09-30T00:50:23.089Z,2.80
2022-09-30T00:52:58.356Z,2.75
2022-09-30T00:56:03.228Z,2.70
2022-09-30T00:58:36.756Z,2.90
2022-09-30T01:01:04.035Z,2.53
2022-09-30T01:03:35.145Z,3.05
2022-09-30T01:06:02.761Z,3.00
2022-09-30T01:08:33.896Z,2.50
2022-09-30T01:11:04.512Z,3.78
2022-09-30T01:13:35.858Z,3.05
2022-09-30T01:16:17.550Z,3.28
2022-09-30T01:19:14.055Z,3.15
2022-09-30T01:21:58.681Z,3.30
2022-09-30T01:25:05.715Z,2.95
2022-09-30T01:28:29.969Z,2.70
2022-09-30T01:31:20.257Z,2.85
2022-09-30T01:34:10.012Z,3.20
2022-09-30T01:36:45.745Z,3.05
2022-09-30T01:39:30.694Z,3.47
2022-09-30T01:42:17.832Z,3.67
2022-09-30T01:45:15.260Z,3.15
2022-09-30T01:48:11.480Z,3.30
2022-09-30T01:51:08.886Z,3.40
2022-09-30T01:53:56.120Z,3.75
2022-09-30T01:56:32.916Z,3.55
2022-09-30T01:59:07.945Z,3.03
2022-09-30T02:01:40.768Z,3.55
2022-09-30T02:04:24.913Z,4.10
2022-09-30T02:06:58.585Z,4.03
2022-09-30T02:09:32.321Z,2.75
2022-09-30T02:12:03.464Z,3.65
2022-09-30T02:14:37.544Z,3.35
2022-09-30T02:17:21.718Z,3.10
2022-09-30T02:19:59.180Z,3.65
2022-09-30T02:22:32.281Z,3.45
2022-09-30T02:25:03.909Z,3.53
2022-09-30T02:27:41.438Z,3.47
2022-09-30T02:30:10.269Z,3.40
2022-09-30T02:32:51.172Z,3.20
2022-09-30T02:35:36.461Z,3.33
2022-09-30T02:38:13.279Z,3.20
2022-09-30T02:40:48.096Z,3.03
2022-09-30T02:43:18.492Z,2.80
2022-09-30T02:46:21.297Z,3.50
2022-09-30T02:49:01.997Z,3.05
2022-09-30T02:52:01.815Z,3.70
2022-09-30T02:54:35.412Z,3.38
2022-09-30T02:57:19.260Z,3.90
2022-09-30T02:59:51.067Z,4.00
2022-09-30T03:02:18.674Z,3.67
2022-09-30T03:04:48.051Z,3.42
2022-09-30T03:07:19.234Z,3.33
2022-09-30T03:09:45.954Z,3.75
2022-09-30T03:13:04.344Z,3.83
2022-09-30T03:15:59.862Z,3.10
2022-09-30T03:18:47.027Z,3.63
2022-09-30T03:22:07.683Z,3.20
2022-09-30T03:25:04.263Z,3.65
2022-09-30T03:27:56.687Z,3.40
2022-09-30T03:30:28.633Z,3.38
2022-09-30T03:33:22.795Z,3.80
2022-09-30T03:35:58.252Z,3.53
2022-09-30T03:38:46.513Z,3.67
2022-09-30T03:41:28.019Z,3.90
2022-09-30T03:44:31.343Z,4.18
2022-09-30T03:47:05.339Z,3.88
2022-09-30T03:49:41.931Z,4.00
2022-09-30T03:52:12.444Z,3.60
2022-09-30T03:54:50.606Z,4.18
2022-09-30T03:57:17.553Z,3.67
2022-09-30T03:59:44.148Z,4.15
2022-09-30T04:02:13.270Z,3.92
2022-09-30T04:04:41.716Z,3.20
2022-09-30T04:07:11.755Z,3.60
2022-09-30T04:09:38.948Z,3.30
2022-09-30T04:12:07.168Z,3.28
2022-09-30T04:14:35.755Z,3.67
2022-09-30T04:17:04.339Z,3.65
2022-09-30T04:19:31.334Z,3.90
2022-09-30T04:21:57.954Z,3.63
2022-09-30T04:24:25.017Z,4.78
2022-09-30T04:26:51.992Z,3.90
2022-09-30T04:29:18.617Z,4.00
2022-09-30T04:31:45.317Z,4.40
2022-09-30T04:34:12.086Z,4.13
2022-09-30T04:36:38.997Z,4.07
2022-09-30T04:39:05.818Z,3.80
2022-09-30T04:41:34.054Z,3.65
2022-09-30T04:44:05.983Z,3.70
2022-09-30T04:46:36.575Z,4.03
2022-09-30T04:49:09.508Z,3.72
2022-09-30T04:51:38.237Z,4.32
2022-09-30T04:54:05.353Z,3.92
2022-09-30T04:56:33.737Z,4.60
2022-09-30T04:59:00.320Z,3.72
2022-09-30T05:01:26.972Z,3.72
2022-09-30T05:03:54.693Z,4.32
2022-09-30T05:06:22.055Z,3.97
2022-09-30T05:08:48.738Z,4.20
2022-09-30T05:11:20.774Z,3.85
2022-09-30T05:13:48.815Z,4.13
2022-09-30T05:16:17.119Z,4.38
2022-09-30T05:18:45.990Z,3.72
2022-09-30T05:21:16.772Z,4.63
2022-09-30T05:23:43.439Z,4.10
2022-09-30T05:26:12.453Z,4.50
2022-09-30T05:28:41.110Z,4.40
2022-09-30T05:31:08.374Z,4.32
2022-09-30T05:33:38.278Z,4.70
2022-09-30T05:36:10.513Z,4.45
2022-09-30T05:38:37.129Z,4.90
2022-09-30T05:41:12.460Z,4.22
2022-09-30T05:43:45.237Z,4.10
2022-09-30T05:46:12.223Z,4.38
2022-09-30T05:48:39.070Z,4.07
2022-09-30T05:51:05.922Z,4.93
2022-09-30T05:53:34.438Z,4.63
2022-09-30T05:56:01.611Z,4.22
2022-09-30T05:58:28.179Z,4.18
2022-09-30T06:00:55.222Z,4.40
2022-09-30T06:03:22.056Z,4.05
2022-09-30T06:05:52.858Z,4.38
2022-09-30T06:08:19.396Z,3.80
2022-09-30T06:10:46.496Z,4.20
2022-09-30T06:13:13.045Z,3.72
2022-09-30T06:15:41.175Z,4.55
2022-09-30T06:18:09.836Z,4.25
2022-09-30T06:20:37.349Z,4.82
2022-09-30T06:23:04.856Z,3.53
2022-09-30T06:25:31.948Z,3.85
2022-09-30T06:27:58.995Z,3.88
2022-09-30T06:30:25.666Z,3.92
2022-09-30T06:32:53.939Z,4.15
2022-09-30T06:35:21.667Z,3.83
2022-09-30T06:37:51.788Z,3.80
2022-09-30T06:40:21.113Z,3.97
2022-09-30T06:42:49.517Z,3.80
2022-09-30T06:45:30.391Z,3.78
2022-09-30T06:48:00.866Z,3.63
2022-09-30T06:50:29.143Z,3.88
2022-09-30T06:53:05.998Z,3.55
2022-09-30T06:55:33.645Z,3.30
2022-09-30T06:58:00.432Z,4.20
2022-09-30T07:00:28.546Z,5.25
2022-09-30T07:02:56.574Z,5.18
2022-09-30T07:05:25.574Z,5.03
2022-09-30T07:07:53.729Z,5.00
2022-09-30T07:10:20.872Z,4.40
2022-09-30T07:12:54.063Z,4.28
2022-09-30T07:15:22.811Z,4.05
2022-09-30T07:17:56.621Z,3.50
2022-09-30T07:20:23.699Z,2.70
2022-09-30T07:22:50.302Z,3.00
2022-09-30T07:25:17.861Z,2.72
2022-09-30T07:27:44.847Z,2.15
2022-09-30T07:30:24.561Z,2.22
2022-09-30T07:32:53.506Z,2.38
2022-09-30T07:35:20.628Z,2.08
2022-09-30T07:37:47.586Z,2.13
2022-09-30T07:40:15.083Z,2.95
2022-09-30T07:42:45.535Z,3.20
2022-09-30T07:45:15.800Z,3.42
2022-09-30T07:47:42.390Z,2.70
2022-09-30T07:50:10.634Z,3.15
2022-09-30T07:52:37.489Z,3.15
2022-09-30T07:55:04.366Z,2.88
2022-09-30T07:57:30.999Z,2.70
2022-09-30T07:59:57.636Z,3.00
2022-09-30T08:02:24.903Z,2.35
2022-09-30T08:04:51.540Z,2.70
2022-09-30T08:07:19.398Z,3.58
2022-09-30T08:09:46.195Z,2.60
2022-09-30T08:12:12.823Z,2.50
2022-09-30T08:14:39.424Z,2.50
2022-09-30T08:17:06.163Z,2.63
2022-09-30T08:19:33.837Z,3.13
2022-09-30T08:22:00.618Z,2.70
2022-09-30T08:24:27.587Z,3.10
2022-09-30T08:26:55.470Z,3.90
2022-09-30T08:29:50.050Z,4.97
2022-09-30T08:32:08.951Z,3.40
2022-09-30T08:34:36.110Z,2.90
2022-09-30T08:37:08.754Z,3.15
2022-09-30T08:39:39.655Z,3.13
2022-09-30T08:42:39.482Z,3.20
2022-09-30T08:45:26.122Z,3.22
2022-09-30T08:51:24.733Z,3.22
2022-09-30T08:53:52.315Z,3.63
2022-09-30T08:56:28.399Z,3.67
2022-09-30T08:59:02.573Z,3.53
2022-09-30T09:01:41.125Z,4.00
2022-09-30T09:04:08.440Z,3.78
2022-09-30T09:07:10.331Z,5.15
2022-09-30T09:10:05.164Z,3.83
2022-09-30T09:12:52.989Z,4.47
2022-09-30T09:15:25.624Z,4.35
2022-09-30T09:18:29.403Z,4.85
2022-09-30T09:20:59.643Z,5.20
2022-09-30T09:23:30.924Z,5.43
2022-09-30T09:25:58.041Z,5.45
2022-09-30T09:29:12.326Z,4.75
2022-09-30T09:31:38.967Z,5.30
2022-09-30T09:34:11.959Z,5.35
2022-09-30T09:36:58.499Z,5.63
2022-09-30T09:39:58.446Z,5.25
2022-09-30T09:43:26.180Z,5.07
2022-09-30T09:46:09.114Z,6.25
2022-09-30T09:48:35.896Z,6.25
2022-09-30T09:51:23.859Z,7.00
2022-09-30T09:53:53.757Z,6.60
2022-09-30T09:56:23.119Z,6.22
2022-09-30T09:59:13.101Z,6.25
2022-09-30T10:01:52.707Z,6.22
2022-09-30T10:04:23.771Z,6.70
2022-09-30T10:06:59.883Z,6.18
2022-09-30T10:09:35.324Z,6.53
2022-09-30T10:12:08.066Z,7.05
2022-09-30T10:15:15.731Z,6.45
2022-09-30T10:17:42.427Z,6.45
2022-09-30T10:20:14.868Z,6.75
2022-09-30T10:22:42.128Z,6.28
2022-09-30T10:25:14.720Z,6.53
2022-09-30T10:28:00.132Z,7.35
2022-09-30T10:30:53.407Z,7.90
2022-09-30T10:33:30.236Z,7.38
2022-09-30T10:36:20.036Z,6.60
2022-09-30T10:39:01.167Z,6.75
2022-09-30T10:41:33.359Z,6.65
2022-09-30T10:44:04.243Z,6.43
2022-09-30T10:46:36.473Z,7.35
2022-09-30T10:49:28.979Z,6.85
2022-09-30T10:51:57.583Z,7.22
2022-09-30T10:54:48.844Z,6.35
2022-09-30T10:57:37.663Z,6.25
2022-09-30T11:00:14.787Z,7.13
2022-09-30T11:02:59.021Z,6.55
2022-09-30T11:05:38.221Z,6.47
2022-09-30T11:08:36.472Z,6.70
2022-09-30T11:11:23.173Z,7.00
2022-09-30T11:14:02.527Z,7.75
2022-09-30T11:16:56.088Z,6.32
2022-09-30T11:19:35.828Z,6.00
2022-09-30T11:22:53.537Z,7.22
2022-09-30T11:25:43.040Z,7.55
2022-09-30T11:28:39.737Z,6.43
2022-09-30T11:31:30.794Z,5.50
2022-09-30T11:34:23.160Z,6.18
2022-09-30T11:37:01.009Z,6.00
2022-09-30T11:40:09.472Z,5.57
2022-09-30T11:43:25.359Z,4.90
2022-09-30T11:46:10.572Z,5.18
2022-09-30T11:48:58.907Z,5.22
2022-09-30T11:51:58.274Z,4.63
2022-09-30T11:55:26.422Z,4.10
2022-09-30T11:58:22.452Z,5.57
2022-09-30T12:01:25.051Z,3.95
2022-09-30T12:04:07.990Z,3.35
2022-09-30T12:06:40.716Z,3.42
2022-09-30T12:09:08.816Z,3.33
2022-09-30T12:11:52.013Z,3.70
2022-09-30T12:14:39.141Z,3.70
2022-09-30T12:17:19.776Z,3.30
2022-09-30T12:19:51.125Z,3.63
2022-09-30T12:22:25.062Z,3.38
2022-09-30T12:24:51.633Z,3.53
2022-09-30T12:27:30.492Z,3.67
2022-09-30T12:30:20.177Z,3.50
2022-09-30T12:33:12.077Z,3.22
2022-09-30T12:36:17.420Z,3.13
2022-09-30T12:39:11.230Z,2.92
2022-09-30T12:42:20.255Z,3.00
2022-09-30T12:45:37.584Z,3.45
2022-09-30T12:48:10.334Z,3.00
2022-09-30T12:50:57.995Z,3.05
2022-09-30T12:53:34.567Z,3.17
2022-09-30T12:56:09.335Z,2.67
2022-09-30T12:58:45.155Z,2.78
2022-09-30T13:01:17.310Z,2.85
2022-09-30T13:04:04.004Z,3.22
2022-09-30T13:06:45.688Z,2.28
2022-09-30T13:09:23.515Z,2.33
2022-09-30T13:11:56.281Z,2.83
2022-09-30T13:14:34.749Z,2.80
2022-09-30T13:17:07.459Z,2.60
2022-09-30T13:19:57.350Z,2.67
2022-09-30T13:22:30.075Z,2.92
2022-09-30T13:25:05.626Z,2.38
2022-09-30T13:27:55.419Z,2.28
2022-09-30T13:30:22.053Z,2.30
2022-09-30T13:33:26.495Z,2.30
2022-09-30T13:35:57.675Z,2.13
2022-09-30T13:38:40.050Z,1.92
2022-09-30T13:41:24.173Z,4.40
2022-09-30T13:44:06.190Z,3.70
2022-09-30T13:46:56.758Z,2.00
2022-09-30T13:49:59.624Z,2.00
2022-09-30T13:52:36.043Z,1.85
2022-09-30T13:55:09.565Z,2.08
2022-09-30T13:58:00.593Z,3.47
2022-09-30T14:00:56.687Z,1.90
2022-09-30T14:04:23.074Z,1.75
2022-09-30T14:07:32.323Z,4.90
2022-09-30T14:10:41.947Z,2.45
2022-09-30T14:13:53.503Z,1.80
2022-09-30T14:16:35.136Z,1.40
2022-09-30T14:19:33.399Z,1.30
2022-09-30T14:22:06.041Z,1.17
2022-09-30T14:24:38.838Z,1.40
2022-09-30T14:27:45.550Z,1.42
2022-09-30T14:30:20.058Z,1.77
2022-09-30T14:33:02.238Z,1.83
2022-09-30T14:35:32.951Z,2.10
2022-09-30T14:38:03.031Z,1.63
2022-09-30T14:40:33.196Z,1.38
2022-09-30T14:43:06.172Z,1.40
2022-09-30T14:45:37.701Z,1.80
2022-09-30T14:48:11.554Z,1.33
2022-09-30T14:50:52.131Z,1.40
2022-09-30T14:53:38.948Z,1.45
2022-09-30T14:56:27.144Z,1.42
2022-09-30T14:58:57.539Z,1.48
2022-09-30T15:01:26.095Z,1.15
2022-09-30T15:04:00.214Z,1.17
2022-09-30T15:06:32.358Z,1.40
2022-09-30T15:09:04.729Z,1.20
2022-09-30T15:11:37.293Z,1.13
2022-09-30T15:14:18.150Z,1.02
2022-09-30T15:16:53.831Z,1.00
2022-09-30T15:19:31.901Z,0.90
2022-09-30T15:22:05.014Z,1.00
2022-09-30T15:24:33.462Z,1.67
2022-09-30T15:27:02.640Z,1.20
2022-09-30T15:29:29.364Z,1.38
2022-09-30T15:32:04.472Z,2.03
2022-09-30T15:34:31.384Z,2.47
2022-09-30T15:37:06.396Z,2.10
2022-09-30T15:39:57.369Z,1.55
2022-09-30T15:42:45.469Z,1.30
2022-09-30T15:45:34.618Z,1.70
2022-09-30T15:48:06.461Z,1.33
2022-09-30T15:50:43.457Z,1.35
2022-09-30T15:53:36.561Z,1.40
2022-09-30T15:56:37.046Z,2.50
2022-09-30T15:59:08.717Z,1.67
2022-09-30T16:01:41.893Z,1.20
2022-09-30T16:04:22.666Z,1.77
2022-09-30T16:07:06.657Z,1.75
2022-09-30T16:09:41.307Z,1.23
2022-09-30T16:12:14.080Z,1.70
2022-09-30T16:14:50.194Z,1.45
2022-09-30T16:17:33.389Z,1.60
2022-09-30T16:20:17.330Z,1.70
2022-09-30T16:22:54.821Z,1.50
2022-09-30T16:25:33.479Z,5.05
2022-09-30T16:28:13.398Z,5.28
2022-09-30T16:30:51.473Z,4.80
2022-09-30T16:33:21.586Z,4.85
2022-09-30T16:35:48.416Z,4.80
2022-09-30T16:38:17.941Z,4.63
2022-09-30T16:40:45.592Z,5.00
2022-09-30T16:43:12.202Z,5.50
2022-09-30T16:45:40.257Z,3.50
2022-09-30T16:48:16.557Z,2.45
2022-09-30T16:50:54.630Z,1.65
2022-09-30T16:53:21.844Z,1.40
2022-09-30T16:55:48.442Z,1.20
2022-09-30T16:58:15.174Z,1.15
2022-09-30T17:00:44.388Z,1.08
2022-09-30T17:03:17.631Z,1.90
2022-09-30T17:05:46.843Z,2.80
2022-09-30T17:08:15.754Z,2.95
2022-09-30T17:10:45.237Z,3.53
2022-09-30T17:13:12.579Z,4.53
2022-09-30T17:15:39.147Z,1.60
2022-09-30T17:18:08.735Z,1.80
2022-09-30T17:20:45.821Z,1.33
2022-09-30T17:23:12.894Z,1.20
2022-09-30T17:25:41.505Z,2.00
2022-09-30T17:28:12.144Z,2.00
2022-09-30T17:30:41.115Z,1.60
2022-09-30T17:33:11.705Z,1.90
2022-09-30T17:35:39.197Z,9.48
2022-09-30T17:38:10.587Z,8.73
2022-09-30T17:40:56.041Z,2.15
2022-09-30T17:43:22.902Z,2.88
2022-09-30T17:45:52.332Z,3.63
2022-09-30T17:48:19.136Z,2.90
2022-09-30T17:50:48.131Z,7.68
2022-09-30T17:53:19.106Z,5.43
2022-09-30T17:55:47.907Z,7.05
2022-09-30T17:58:17.045Z,6.63
2022-09-30T18:00:43.900Z,6.07
2022-09-30T18:03:10.606Z,5.20
2022-09-30T18:05:37.788Z,5.07
2022-09-30T18:08:05.495Z,5.47
2022-09-30T18:10:32.653Z,5.35
2022-09-30T18:12:59.576Z,4.53
2022-09-30T18:15:27.012Z,7.00
2022-09-30T18:17:53.733Z,16.00
2022-09-30T18:20:23.332Z,27.05
2022-09-30T18:22:52.056Z,52.10
2022-09-30T18:25:22.720Z,59.35
2022-09-30T18:28:01.085Z,24.17
2022-09-30T18:30:29.147Z,15.18
2022-09-30T18:32:56.944Z,12.50
2022-09-30T18:35:24.534Z,16.10
2022-09-30T18:37:53.480Z,14.07
2022-09-30T18:40:23.270Z,7.38
2022-09-30T18:42:59.100Z,6.28
2022-09-30T18:45:28.343Z,3.70
2022-09-30T18:47:58.135Z,8.48
2022-09-30T18:50:28.115Z,6.93
2022-09-30T18:52:55.680Z,5.25
2022-09-30T18:55:22.634Z,5.78
2022-09-30T18:57:53.545Z,8.48
2022-09-30T19:00:20.506Z,14.65
2022-09-30T19:02:47.153Z,11.63
2022-09-30T19:05:16.589Z,10.50
2022-09-30T19:07:43.301Z,19.73
2022-09-30T19:10:12.490Z,19.75
2022-09-30T19:12:44.346Z,17.77
2022-09-30T19:15:15.885Z,12.13
2022-09-30T19:17:43.855Z,12.80
2022-09-30T19:20:12.055Z,4.50
2022-09-30T19:22:38.673Z,8.15
2022-09-30T19:25:07.321Z,11.77
2022-09-30T19:27:38.166Z,14.43
2022-09-30T19:30:08.494Z,8.73
2022-09-30T19:32:37.410Z,8.50
2022-09-30T19:35:07.098Z,9.13
2022-09-30T19:37:34.199Z,9.20
2022-09-30T19:40:10.370Z,9.38
2022-09-30T19:42:42.838Z,8.02
2022-09-30T19:45:09.496Z,5.43
2022-09-30T19:47:36.471Z,7.88
2022-09-30T19:50:04.049Z,13.43
2022-09-30T19:52:30.889Z,8.10
2022-09-30T19:55:07.464Z,8.70
2022-09-30T19:57:41.955Z,32.78
2022-09-30T20:00:12.401Z,28.38
2022-09-30T20:02:39.047Z,10.20
2022-09-30T20:05:06.532Z,22.65
2022-09-30T20:07:34.070Z,30.17
2022-09-30T20:10:00.797Z,36.58
2022-09-30T20:12:28.814Z,20.52
2022-09-30T20:15:13.868Z,19.48
2022-09-30T20:17:40.466Z,15.15
2022-09-30T20:20:26.553Z,14.73
2022-09-30T20:22:53.226Z,12.73
2022-09-30T20:25:20.149Z,7.35
2022-09-30T20:27:51.351Z,12.88
2022-09-30T20:30:19.793Z,5.47
2022-09-30T20:32:46.456Z,7.45
2022-09-30T20:35:13.737Z,4.93
2022-09-30T20:37:40.766Z,2.97
2022-09-30T20:40:11.518Z,3.28
2022-09-30T20:42:39.854Z,2.88
2022-09-30T20:45:10.124Z,2.10
2022-09-30T20:47:38.766Z,3.15
2022-09-30T20:50:06.852Z,12.05
2022-09-30T20:52:34.523Z,6.85
2022-09-30T20:55:01.142Z,5.07
2022-09-30T20:57:32.229Z,2.75
2022-09-30T20:59:59.799Z,3.40
2022-09-30T21:02:27.804Z,3.13
2022-09-30T21:04:57.427Z,3.13
2022-09-30T21:07:25.168Z,2.35
2022-09-30T21:09:52.026Z,2.75
2022-09-30T21:12:18.865Z,2.63
2022-09-30T21:14:55.908Z,2.30
2022-09-30T21:17:22.585Z,2.50
2022-09-30T21:19:49.169Z,2.35
2022-09-30T21:22:17.063Z,2.15
2022-09-30T21:24:43.689Z,2.35
2022-09-30T21:27:10.297Z,1.88
2022-09-30T21:29:38.669Z,1.90
2022-09-30T21:32:05.425Z,1.70
2022-09-30T21:34:32.099Z,1.80
2022-09-30T21:36:58.633Z,1.85
2022-09-30T21:39:25.201Z,2.17
2022-09-30T21:41:51.821Z,1.63
2022-09-30T21:44:18.449Z,1.80
2022-09-30T21:46:48.547Z,1.70
2022-09-30T21:49:22.956Z,1.70
2022-09-30T21:51:52.766Z,1.73
2022-09-30T21:54:19.975Z,3.33
2022-09-30T21:56:48.326Z,3.20
2022-09-30T21:59:15.577Z,2.30
2022-09-30T22:01:42.201Z,1.80
2022-09-30T22:04:09.225Z,1.52
2022-09-30T22:06:35.888Z,1.60
2022-09-30T22:09:03.047Z,1.50
2022-09-30T22:11:31.405Z,1.63
2022-09-30T22:14:00.155Z,1.75
2022-09-30T22:16:34.754Z,1.75
2022-09-30T22:19:06.032Z,1.63
2022-09-30T22:21:35.990Z,1.63
2022-09-30T22:24:05.365Z,1.63
2022-09-30T22:26:33.157Z,1.45
2022-09-30T22:29:08.358Z,1.60
2022-09-30T22:31:35.404Z,1.30
2022-09-30T22:34:24.826Z,1.70
2022-09-30T22:37:10.721Z,1.63
2022-09-30T22:39:37.312Z,1.60
2022-09-30T22:42:04.322Z,1.40
2022-09-30T22:44:36.392Z,1.45
2022-09-30T22:47:03.937Z,1.60
2022-09-30T22:49:34.292Z,1.60
2022-09-30T22:52:04.570Z,1.85
2022-09-30T22:54:31.366Z,1.45
2022-09-30T22:56:59.168Z,1.80
2022-09-30T22:59:27.014Z,1.40
2022-09-30T23:01:54.359Z,1.52
2022-09-30T23:04:22.038Z,1.58
2022-09-30T23:06:51.017Z,1.73
2022-09-30T23:09:20.511Z,1.48
2022-09-30T23:11:48.310Z,1.50
2022-09-30T23:14:14.901Z,1.40
2022-09-30T23:16:42.688Z,1.42
2022-09-30T23:19:09.650Z,1.70
2022-09-30T23:21:36.840Z,1.85
2022-09-30T23:24:04.192Z,1.48
2022-09-30T23:26:31.350Z,1.42
2022-09-30T23:28:59.969Z,1.55
2022-09-30T23:31:28.047Z,1.52
2022-09-30T23:33:59.468Z,1.60
2022-09-30T23:36:32.983Z,1.38
2022-09-30T23:39:15.379Z,1.60
2022-09-30T23:41:46.154Z,1.30
2022-09-30T23:44:14.690Z,1.10
2022-09-30T23:47:01.328Z,1.30
2022-09-30T23:49:28.130Z,1.35
2022-09-30T23:51:54.898Z,1.58
2022-09-30T23:54:21.534Z,1.30
2022-09-30T23:56:48.332Z,1.38
2022-09-30T23:59:17.081Z,1.40
